Погода Рязановона 2 недели

Смоленская область, Россия

23 мая-04 июня
  • 23мая
    Сегодня
    +9°
    +24°
    Ясно и безоблачно
    ВремяПогодаТемператураВлажностьДавлениеВетер, м/сВероятность осадков
    00:00Ясно и безоблачно+14°C92 %744 мм0.9 м/с2 %
    03:00Ясно и безоблачно+12°C84 %745 мм1.0 м/с2 %
    06:00Ясно и безоблачно+12°C67 %746 мм1.4 м/с2 %
    09:00Ясно и безоблачно+17°C59 %747 мм2.1 м/с2 %
    12:00Ясно и безоблачно+21°C48 %747 мм2.6 м/с2 %
    15:00Ясно и безоблачно+23°C41 %748 мм2.4 м/с2 %
    18:00Ясно и безоблачно+21°C43 %747 мм2.1 м/с2 %
    21:00Ясно и безоблачно+15°C50 %748 мм1.0 м/с2 %
  • 24мая
    Пятница
    +8°
    +21°
    Ясно и безоблачно
    ВремяПогодаТемператураВлажностьДавлениеВетер, м/сВероятность осадков
    00:00Ясно и безоблачно+12°C55 %749 мм1.2 м/с2 %
    03:00Ясно и безоблачно+10°C64 %750 мм1.1 м/с2 %
    06:00Ясно и безоблачно+10°C60 %751 мм1.4 м/с2 %
    09:00Ясно и безоблачно+15°C51 %751 мм2.0 м/с2 %
    12:00Ясно и безоблачно+18°C40 %751 мм2.5 м/с2 %
    15:00Ясно и безоблачно+21°C35 %751 мм2.5 м/с2 %
    18:00Ясно и безоблачно+19°C35 %750 мм1.7 м/с2 %
    21:00Ясно и безоблачно+13°C52 %750 мм0.6 м/с2 %
  • 25мая
    Суббота
    +8°
    +22°
    Ясно и безоблачно
    ВремяПогодаТемператураВлажностьДавлениеВетер, м/сВероятность осадков
    00:00Ясно и безоблачно+10°C60 %750 мм0.9 м/с2 %
    03:00Ясно и безоблачно+9°C67 %750 мм0.6 м/с2 %
    06:00Ясно и безоблачно+9°C69 %750 мм0.8 м/с2 %
    09:00Ясно и безоблачно+16°C55 %750 мм1.4 м/с2 %
    12:00Ясно и безоблачно+20°C41 %750 мм1.8 м/с2 %
    15:00Ясно и безоблачно+22°C38 %749 мм1.8 м/с2 %
    18:00Ясно и безоблачно+21°C40 %748 мм1.1 м/с2 %
    21:00Ясно и безоблачно+14°C64 %747 мм0.0 м/с2 %
  • 26мая
    Воскресенье
    +9°
    +23°
    Практически безоблачно
    ВремяПогодаТемператураВлажностьДавлениеВетер, м/сВероятность осадков
    00:00Практически безоблачно+11°C71 %747 мм0.3 м/с2 %
    03:00Облачно с прояснениями+9°C74 %746 мм0.0 м/с2 %
    06:00Облачно с прояснениями+11°C75 %746 мм0.1 м/с2 %
    09:00Облачно с прояснениями+18°C54 %747 мм0.4 м/с2 %
    12:00Небольшая облачность+22°C39 %747 мм1.1 м/с2 %
    15:00Практически безоблачно+24°C36 %747 мм1.1 м/с10 %
    18:00Ясно и безоблачно+23°C38 %746 мм0.8 м/с4 %
    21:00Ясно и безоблачно+16°C56 %746 мм0.0 м/с4 %
Мы используем cookies
Соглашаюсь